createdAt,value
2022-09-06T00:00:58.925Z,49523.66
2022-09-06T00:03:28.129Z,49515.69
2022-09-06T00:05:55.097Z,49485.78
2022-09-06T00:08:21.718Z,49491.78
2022-09-06T00:10:48.418Z,49503.72
2022-09-06T00:13:15.123Z,49499.75
2022-09-06T00:15:41.868Z,49483.81
2022-09-06T00:18:08.733Z,49495.75
2022-09-06T00:20:41.342Z,49473.84
2022-09-06T00:23:08.777Z,49449.91
2022-09-06T00:25:35.773Z,49491.78
2022-09-06T00:28:04.927Z,49493.75
2022-09-06T00:30:32.873Z,49491.78
2022-09-06T00:32:59.411Z,49473.84
2022-09-06T00:35:26.841Z,49507.72
2022-09-06T00:37:58.863Z,49507.72
2022-09-06T00:40:25.972Z,49535.63
2022-09-06T00:42:52.684Z,49499.75
2022-09-06T00:45:20.079Z,49489.78
2022-09-06T00:47:47.207Z,49495.75
2022-09-06T00:50:17.749Z,49507.72
2022-09-06T00:52:46.887Z,49535.63
2022-09-06T00:55:14.013Z,49487.78
2022-09-06T00:57:41.435Z,49493.75
2022-09-06T01:00:09.555Z,49495.75
2022-09-06T01:02:36.676Z,49499.75
2022-09-06T01:05:05.015Z,49497.75
2022-09-06T01:07:49.770Z,49487.78
2022-09-06T01:10:22.131Z,49459.88
2022-09-06T01:13:01.389Z,49511.72
2022-09-06T01:15:40.147Z,49467.84
2022-09-06T01:18:23.645Z,49499.75
2022-09-06T01:21:19.077Z,49477.81
2022-09-06T01:24:04.474Z,49519.69
2022-09-06T01:26:49.877Z,49535.63
2022-09-06T01:29:28.634Z,49505.72
2022-09-06T01:32:04.842Z,49521.69
2022-09-06T01:34:39.656Z,49479.81
2022-09-06T01:37:12.307Z,49473.84
2022-09-06T01:39:40.838Z,49509.72
2022-09-06T01:42:12.289Z,49489.78
2022-09-06T01:44:43.713Z,49515.69
2022-09-06T01:47:48.764Z,49493.75
2022-09-06T01:50:48.978Z,49503.72
2022-09-06T01:53:40.263Z,49491.78
2022-09-06T01:56:34.304Z,49471.84
2022-09-06T01:59:19.747Z,49507.72
2022-09-06T02:01:57.532Z,49515.69
2022-09-06T02:04:28.589Z,49535.63
2022-09-06T02:07:01.500Z,49503.72
2022-09-06T02:09:33.880Z,49513.69
2022-09-06T02:12:02.389Z,49503.72
2022-09-06T02:14:37.387Z,49519.69
2022-09-06T02:17:07.190Z,49515.69
2022-09-06T02:19:39.854Z,49519.69
2022-09-06T02:22:09.539Z,49507.72
2022-09-06T02:24:40.697Z,49543.59
2022-09-06T02:27:08.219Z,49509.72
2022-09-06T02:29:35.521Z,49559.56
2022-09-06T02:32:12.407Z,49535.63
2022-09-06T02:34:43.253Z,49555.56
2022-09-06T02:37:11.420Z,49527.66
2022-09-06T02:39:39.015Z,49543.59
2022-09-06T02:42:08.226Z,49547.59
2022-09-06T02:44:34.929Z,49519.69
2022-09-06T02:47:03.319Z,49507.72
2022-09-06T02:49:31.062Z,49515.69
2022-09-06T02:51:57.722Z,49523.66
2022-09-06T02:54:25.156Z,49523.66
2022-09-06T02:56:52.621Z,49551.56
2022-09-06T02:59:19.466Z,49529.66
2022-09-06T03:01:46.197Z,49507.72
2022-09-06T03:04:12.902Z,49559.56
2022-09-06T03:06:39.561Z,49539.63
2022-09-06T03:09:06.209Z,49531.63
2022-09-06T03:11:32.847Z,49539.63
2022-09-06T03:13:59.453Z,49523.66
2022-09-06T03:16:26.095Z,49509.72
2022-09-06T03:18:52.776Z,49555.56
2022-09-06T03:21:19.410Z,49505.72
2022-09-06T03:23:46.088Z,49557.56
2022-09-06T03:26:12.912Z,49537.63
2022-09-06T03:28:39.672Z,49547.59
2022-09-06T03:31:06.758Z,49555.56
2022-09-06T03:33:33.661Z,49519.69
2022-09-06T03:36:03.148Z,49563.53
2022-09-06T03:38:30.807Z,49487.78
2022-09-06T03:40:57.938Z,49539.63
2022-09-06T03:43:25.839Z,49549.59
2022-09-06T03:45:53.418Z,49545.59
2022-09-06T03:48:20.759Z,49553.56
2022-09-06T03:50:49.428Z,49513.69
2022-09-06T03:53:17.212Z,49555.56
2022-09-06T03:55:53.395Z,49551.56
2022-09-06T03:58:21.951Z,49571.50
2022-09-06T04:00:49.244Z,49543.59
2022-09-06T04:03:16.057Z,49547.59
2022-09-06T04:05:46.386Z,49531.63
2022-09-06T04:08:13.303Z,49561.53
2022-09-06T04:10:40.087Z,49563.53
2022-09-06T04:13:06.712Z,49585.47
2022-09-06T04:15:33.347Z,49517.69
2022-09-06T04:17:59.983Z,49563.53
2022-09-06T04:20:26.640Z,49527.66
2022-09-06T04:22:53.657Z,49541.59
2022-09-06T04:25:20.295Z,49547.59
2022-09-06T04:27:46.957Z,49539.63
2022-09-06T04:30:13.656Z,49589.44
2022-09-06T04:32:40.581Z,49525.66
2022-09-06T04:35:07.782Z,49587.47
2022-09-06T04:37:34.433Z,49515.69
2022-09-06T04:40:01.090Z,49597.44
2022-09-06T04:42:27.923Z,49591.44
2022-09-06T04:44:54.547Z,49559.56
2022-09-06T04:47:21.305Z,49551.56
2022-09-06T04:49:50.800Z,49583.47
2022-09-06T04:52:17.539Z,49587.47
2022-09-06T04:54:44.159Z,49569.50
2022-09-06T04:57:11.019Z,49555.56
2022-09-06T04:59:37.689Z,49559.56
2022-09-06T05:02:04.401Z,49555.56
2022-09-06T05:04:31.124Z,49557.56
2022-09-06T05:07:06.052Z,49565.53
2022-09-06T05:09:33.660Z,49547.59
2022-09-06T05:12:01.000Z,49559.56
2022-09-06T05:14:29.345Z,49585.47
2022-09-06T05:16:56.105Z,49547.59
2022-09-06T05:19:22.932Z,49541.59
2022-09-06T05:21:51.545Z,49603.41
2022-09-06T05:24:18.608Z,49567.53
2022-09-06T05:26:45.307Z,49563.53
2022-09-06T05:29:12.112Z,49559.56
2022-09-06T05:31:38.925Z,49559.56
2022-09-06T05:34:05.750Z,49587.47
2022-09-06T05:36:32.748Z,49579.47
2022-09-06T05:38:59.728Z,49539.63
2022-09-06T05:41:26.929Z,49547.59
2022-09-06T05:43:53.787Z,49535.63
2022-09-06T05:46:20.651Z,49559.56
2022-09-06T05:48:55.117Z,49539.63
2022-09-06T05:51:22.026Z,49547.59
2022-09-06T05:53:48.853Z,49557.56
2022-09-06T05:56:17.033Z,49555.56
2022-09-06T05:58:43.742Z,49585.47
2022-09-06T06:01:18.050Z,49579.47
2022-09-06T06:03:59.127Z,49539.63
2022-09-06T06:06:27.684Z,49571.50
2022-09-06T06:08:54.365Z,49555.56
2022-09-06T06:11:21.266Z,49559.56
2022-09-06T06:13:48.013Z,49519.69
2022-09-06T06:16:17.478Z,49531.63
2022-09-06T06:18:51.771Z,49547.59
2022-09-06T06:21:27.204Z,49557.56
2022-09-06T06:23:57.172Z,49527.66
2022-09-06T06:26:24.934Z,49557.56
2022-09-06T06:28:51.870Z,49571.50
2022-09-06T06:31:19.479Z,49555.56
2022-09-06T06:33:46.414Z,49569.50
2022-09-06T06:36:15.592Z,49513.69
2022-09-06T06:38:44.489Z,49563.53
2022-09-06T06:41:13.776Z,49555.56
2022-09-06T06:43:40.582Z,49549.59
2022-09-06T06:46:13.097Z,49551.56
2022-09-06T06:48:41.364Z,49537.63
2022-09-06T06:51:11.928Z,49525.66
2022-09-06T06:53:38.942Z,49539.63
2022-09-06T06:56:16.684Z,49537.63
2022-09-06T06:58:43.828Z,49551.56
2022-09-06T07:01:10.998Z,49543.59
2022-09-06T07:03:37.748Z,49513.69
2022-09-06T07:06:12.905Z,49555.56
2022-09-06T07:08:40.802Z,49527.66
2022-09-06T07:11:10.090Z,49515.69
2022-09-06T07:13:36.864Z,49599.41
2022-09-06T07:16:23.912Z,49563.53
2022-09-06T07:18:52.588Z,49543.59
2022-09-06T07:21:42.496Z,49533.63
2022-09-06T07:24:09.804Z,49559.56
2022-09-06T07:26:39.535Z,49543.59
2022-09-06T07:29:07.216Z,49501.75
2022-09-06T07:34:22.292Z,49535.63
2022-09-06T07:36:52.696Z,49535.63
2022-09-06T07:39:19.424Z,49503.72
2022-09-06T07:41:46.084Z,49515.69
2022-09-06T07:44:12.751Z,49521.69
2022-09-06T07:46:39.656Z,49531.63
2022-09-06T07:49:06.808Z,49527.66
2022-09-06T07:51:33.735Z,49523.66
2022-09-06T07:54:29.500Z,49491.78
2022-09-06T07:56:47.554Z,49523.66
2022-09-06T07:59:14.349Z,49483.81
2022-09-06T08:01:41.702Z,49509.72
2022-09-06T08:04:13.931Z,49487.78
2022-09-06T08:09:35.402Z,49511.72
2022-09-06T08:12:12.401Z,49501.75
2022-09-06T08:14:39.095Z,49489.78
2022-09-06T08:17:05.854Z,49513.69
2022-09-06T08:19:32.560Z,49493.75
2022-09-06T08:21:59.176Z,49489.78
2022-09-06T08:24:25.918Z,49483.81
2022-09-06T08:26:52.829Z,49507.72
2022-09-06T08:29:22.431Z,49489.78
2022-09-06T08:31:49.248Z,49501.75
2022-09-06T08:34:16.034Z,49485.78
2022-09-06T08:36:42.881Z,49521.69
2022-09-06T08:39:10.796Z,49485.78
2022-09-06T08:41:48.938Z,49495.75
2022-09-06T08:47:18.816Z,49459.88
2022-09-06T08:49:48.019Z,49477.81
2022-09-06T08:52:14.581Z,49489.78
2022-09-06T08:54:47.147Z,49467.84
2022-09-06T08:57:16.549Z,49489.78
2022-09-06T08:59:44.049Z,49495.75
2022-09-06T09:02:18.260Z,49483.81
2022-09-06T09:04:50.851Z,49457.88
2022-09-06T09:07:41.667Z,49479.81
2022-09-06T09:10:15.624Z,49459.88
2022-09-06T09:12:48.753Z,49475.81
2022-09-06T09:15:19.556Z,49467.84
2022-09-06T09:17:48.780Z,49487.78
2022-09-06T09:20:15.567Z,49459.88
2022-09-06T09:22:43.412Z,49467.84
2022-09-06T09:25:14.514Z,49455.88
2022-09-06T09:27:41.671Z,49457.88
2022-09-06T09:32:55.704Z,49433.97
2022-09-06T09:35:28.301Z,49455.88
2022-09-06T09:38:04.914Z,49445.94
2022-09-06T09:40:41.745Z,49467.84
2022-09-06T09:43:15.180Z,49431.97
2022-09-06T09:45:43.324Z,49447.91
2022-09-06T09:48:36.915Z,49427.97
2022-09-06T09:51:27.112Z,49439.94
2022-09-06T09:54:07.262Z,49416.03
2022-09-06T09:56:43.733Z,49427.97
2022-09-06T09:59:28.418Z,49420.00
2022-09-06T10:02:03.823Z,49435.97
2022-09-06T10:04:45.423Z,49439.94
2022-09-06T10:07:32.664Z,49435.97
2022-09-06T10:10:14.219Z,49463.88
2022-09-06T10:12:42.887Z,49441.94
2022-09-06T10:15:32.978Z,49449.91
2022-09-06T10:17:59.853Z,49412.03
2022-09-06T10:20:40.125Z,49392.09
2022-09-06T10:26:09.692Z,49414.03
2022-09-06T10:28:45.468Z,49408.06
2022-09-06T10:31:33.745Z,49370.19
2022-09-06T10:34:10.501Z,49414.03
2022-09-06T10:36:40.183Z,49406.06
2022-09-06T10:39:29.780Z,49416.03
2022-09-06T10:42:14.125Z,49424.00
2022-09-06T10:44:50.019Z,49386.13
2022-09-06T10:47:18.197Z,49392.09
2022-09-06T10:49:50.827Z,49435.97
2022-09-06T10:52:25.620Z,49388.13
2022-09-06T10:54:56.103Z,49414.03
2022-09-06T11:00:27.878Z,49412.03
2022-09-06T11:05:54.665Z,49366.19
2022-09-06T11:08:46.330Z,49396.09
2022-09-06T11:11:23.526Z,49360.22
2022-09-06T11:13:50.307Z,49392.09
2022-09-06T11:16:22.909Z,49348.25
2022-09-06T11:19:09.103Z,49412.03
2022-09-06T11:21:55.065Z,49384.13
2022-09-06T11:25:04.777Z,49338.28
2022-09-06T11:27:31.343Z,49368.19
2022-09-06T11:30:01.355Z,49388.13
2022-09-06T11:32:33.363Z,49384.13
2022-09-06T11:35:03.080Z,49356.22
2022-09-06T11:37:36.401Z,49400.06
2022-09-06T11:42:59.392Z,49356.22
2022-09-06T11:45:48.127Z,49332.31
2022-09-06T11:48:23.778Z,49356.22
2022-09-06T11:50:59.429Z,49334.28
2022-09-06T11:53:29.956Z,49352.22
2022-09-06T11:56:02.369Z,49328.31
2022-09-06T11:58:36.570Z,49394.09
2022-09-06T12:01:12.108Z,49384.13
2022-09-06T12:06:38.933Z,49342.28
2022-09-06T12:09:43.849Z,49364.19
2022-09-06T12:12:16.201Z,49328.31
2022-09-06T12:14:46.872Z,49338.28
2022-09-06T12:17:13.457Z,49332.31
2022-09-06T12:20:06.809Z,49330.31
2022-09-06T12:22:33.587Z,49320.34
2022-09-06T12:25:20.320Z,49340.28
2022-09-06T12:27:55.178Z,49360.22
2022-09-06T12:30:33.125Z,49356.22
2022-09-06T12:33:01.065Z,49326.31
2022-09-06T12:38:24.061Z,49336.28
2022-09-06T12:40:54.802Z,49310.38
2022-09-06T12:43:21.536Z,49340.28
2022-09-06T12:45:51.430Z,49344.25
2022-09-06T12:48:27.450Z,49332.31
2022-09-06T12:51:13.614Z,49308.38
2022-09-06T12:53:40.285Z,49338.28
2022-09-06T12:56:12.710Z,49288.44
2022-09-06T12:58:39.916Z,49312.38
2022-09-06T13:01:09.656Z,49356.22
2022-09-06T13:03:41.496Z,49296.41
2022-09-06T13:06:12.674Z,49338.28
2022-09-06T13:08:51.216Z,49308.38
2022-09-06T13:11:24.591Z,49304.41
2022-09-06T13:13:54.144Z,49354.22
2022-09-06T13:16:22.609Z,49280.47
2022-09-06T13:18:49.640Z,49288.44
2022-09-06T13:21:31.211Z,49240.59
2022-09-06T13:23:59.167Z,49260.53
2022-09-06T13:26:34.492Z,49272.50
2022-09-06T13:29:24.231Z,49284.47
2022-09-06T13:31:53.041Z,49258.53
2022-09-06T13:34:31.214Z,49248.59
2022-09-06T13:37:04.251Z,49212.69
2022-09-06T13:39:35.278Z,49244.59
2022-09-06T13:42:05.895Z,49232.63
2022-09-06T13:44:34.495Z,49254.56
2022-09-06T13:47:01.338Z,49230.63
2022-09-06T13:49:28.766Z,49228.66
2022-09-06T13:52:00.343Z,49268.50
2022-09-06T13:54:27.237Z,49244.59
2022-09-06T13:56:54.430Z,49214.69
2022-09-06T13:59:21.377Z,49198.75
2022-09-06T14:01:53.854Z,49220.69
2022-09-06T14:04:21.631Z,49220.69
2022-09-06T14:06:49.207Z,49198.75
2022-09-06T14:09:15.839Z,49262.53
2022-09-06T14:11:47.496Z,49224.66
2022-09-06T14:14:15.583Z,49294.44
2022-09-06T14:16:42.184Z,49278.47
2022-09-06T14:19:08.798Z,49248.59
2022-09-06T14:21:35.811Z,49216.69
2022-09-06T14:24:04.545Z,49264.53
2022-09-06T14:26:32.217Z,49194.75
2022-09-06T14:28:59.249Z,49228.66
2022-09-06T14:31:27.153Z,49256.56
2022-09-06T14:33:55.643Z,49244.59
2022-09-06T14:36:26.209Z,49212.69
2022-09-06T14:38:53.500Z,49208.72
2022-09-06T14:41:21.098Z,49222.66
2022-09-06T14:43:50.876Z,49176.81
2022-09-06T14:46:19.233Z,49180.81
2022-09-06T14:48:46.557Z,49194.75
2022-09-06T14:51:21.938Z,49248.59
2022-09-06T14:53:50.876Z,49210.72
2022-09-06T14:56:19.103Z,49178.81
2022-09-06T14:58:46.670Z,49176.81
2022-09-06T15:01:22.325Z,49194.75
2022-09-06T15:03:52.102Z,49182.81
2022-09-06T15:06:20.994Z,49208.72
2022-09-06T15:08:48.618Z,49270.50
2022-09-06T15:11:29.739Z,49280.47
2022-09-06T15:13:57.133Z,49280.47
2022-09-06T15:16:24.286Z,49348.25
2022-09-06T15:18:51.066Z,49322.34
2022-09-06T15:21:18.168Z,49326.31
2022-09-06T15:23:45.020Z,49332.31
2022-09-06T15:26:13.676Z,49340.28
2022-09-06T15:28:42.338Z,49328.31
2022-09-06T15:31:09.679Z,49332.31
2022-09-06T15:33:38.015Z,49338.28
2022-09-06T15:36:06.747Z,49316.34
2022-09-06T15:38:35.836Z,49344.25
2022-09-06T15:41:08.188Z,49360.22
2022-09-06T15:43:36.986Z,49348.25
2022-09-06T15:46:04.589Z,49340.28
2022-09-06T15:48:40.899Z,49366.19
2022-09-06T15:51:07.743Z,49348.25
2022-09-06T15:53:34.610Z,49358.22
2022-09-06T15:56:02.634Z,49342.28
2022-09-06T15:58:30.366Z,49356.22
2022-09-06T16:01:04.553Z,49364.19
2022-09-06T16:03:32.241Z,49384.13
2022-09-06T16:08:56.571Z,49340.28
2022-09-06T16:11:23.355Z,49342.28
2022-09-06T16:13:50.419Z,49352.22
2022-09-06T16:16:17.922Z,49356.22
2022-09-06T16:18:48.715Z,49348.25
2022-09-06T16:21:19.474Z,49380.13
2022-09-06T16:23:54.996Z,49346.25
2022-09-06T16:26:23.329Z,49350.25
2022-09-06T16:28:51.705Z,49374.16
2022-09-06T16:31:19.977Z,49366.19
2022-09-06T16:33:48.680Z,49316.34
2022-09-06T16:36:16.052Z,49350.25
2022-09-06T16:38:43.113Z,49376.16
2022-09-06T16:41:09.947Z,49344.25
2022-09-06T16:43:36.958Z,49342.28
2022-09-06T16:46:04.619Z,49374.16
2022-09-06T16:48:32.846Z,49356.22
2022-09-06T16:51:12.248Z,49336.28
2022-09-06T16:53:41.608Z,49372.16
2022-09-06T16:56:09.493Z,49352.22
2022-09-06T16:58:36.527Z,49330.31
2022-09-06T17:01:03.206Z,49340.28
2022-09-06T17:03:30.005Z,49370.19
2022-09-06T17:05:56.830Z,49388.13
2022-09-06T17:08:23.617Z,49368.19
2022-09-06T17:10:50.491Z,49332.31
2022-09-06T17:13:17.131Z,49360.22
2022-09-06T17:16:11.608Z,49368.19
2022-09-06T17:18:38.534Z,49358.22
2022-09-06T17:21:05.528Z,49378.16
2022-09-06T17:23:32.338Z,49378.16
2022-09-06T17:25:59.083Z,49350.25
2022-09-06T17:28:26.300Z,49370.19
2022-09-06T17:30:53.464Z,49376.16
2022-09-06T17:33:21.160Z,49382.13
2022-09-06T17:35:48.980Z,49358.22
2022-09-06T17:38:16.515Z,49370.19
2022-09-06T17:40:43.520Z,49376.16
2022-09-06T17:43:10.240Z,49356.22
2022-09-06T17:45:42.625Z,49400.06
2022-09-06T17:48:09.356Z,49388.13
2022-09-06T17:50:36.293Z,49392.09
2022-09-06T17:53:03.191Z,49390.09
2022-09-06T17:55:30.077Z,49374.16
2022-09-06T17:57:57.554Z,49372.16
2022-09-06T18:00:27.488Z,49396.09
2022-09-06T18:02:54.548Z,49382.13
2022-09-06T18:05:21.613Z,49410.03
2022-09-06T18:07:48.546Z,49374.16
2022-09-06T18:10:17.660Z,49416.03
2022-09-06T18:12:44.314Z,49408.06
2022-09-06T18:15:11.829Z,49396.09
2022-09-06T18:17:38.538Z,49380.13
2022-09-06T18:20:06.126Z,49378.16
2022-09-06T18:22:33.131Z,49368.19
2022-09-06T18:24:59.816Z,49388.13
2022-09-06T18:27:26.489Z,49392.09
2022-09-06T18:29:53.140Z,49392.09
2022-09-06T18:32:19.846Z,49408.06
2022-09-06T18:34:46.484Z,49394.09
2022-09-06T18:37:14.543Z,49406.06
2022-09-06T18:39:42.472Z,49398.09
2022-09-06T18:42:11.369Z,49412.03
2022-09-06T18:44:38.808Z,49396.09
2022-09-06T18:47:08.162Z,49400.06
2022-09-06T18:49:37.038Z,49418.00
2022-09-06T18:52:06.034Z,49394.09
2022-09-06T18:54:32.890Z,49396.09
2022-09-06T18:56:59.925Z,49424.00
2022-09-06T18:59:26.737Z,49431.97
2022-09-06T19:01:53.578Z,49431.97
2022-09-06T19:04:20.381Z,49420.00
2022-09-06T19:06:47.059Z,49431.97
2022-09-06T19:09:16.735Z,49429.97
2022-09-06T19:11:45.712Z,49388.13
2022-09-06T19:14:13.682Z,49382.13
2022-09-06T19:16:42.006Z,49408.06
2022-09-06T19:19:09.907Z,49398.09
2022-09-06T19:21:40.951Z,49386.13
2022-09-06T19:24:10.701Z,49404.06
2022-09-06T19:26:39.512Z,49400.06
2022-09-06T19:29:11.456Z,49388.13
2022-09-06T19:31:38.858Z,49408.06
2022-09-06T19:34:05.884Z,49394.09
2022-09-06T19:36:32.829Z,49408.06
2022-09-06T19:39:05.903Z,49439.94
2022-09-06T19:41:37.008Z,49412.03
2022-09-06T19:44:05.797Z,49412.03
2022-09-06T19:46:33.597Z,49424.00
2022-09-06T19:49:00.590Z,49394.09
2022-09-06T19:51:27.371Z,49400.06
2022-09-06T19:53:59.854Z,49414.03
2022-09-06T19:56:35.068Z,49447.91
2022-09-06T19:59:04.842Z,49418.00
2022-09-06T20:01:33.382Z,49416.03
2022-09-06T20:04:02.857Z,49435.97
2022-09-06T20:06:30.410Z,49408.06
2022-09-06T20:08:59.223Z,49406.06
2022-09-06T20:11:28.866Z,49429.97
2022-09-06T20:13:56.063Z,49404.06
2022-09-06T20:16:24.820Z,49429.97
2022-09-06T20:18:52.375Z,49431.97
2022-09-06T20:21:19.072Z,49439.94
2022-09-06T20:23:54.569Z,49422.00
2022-09-06T20:26:23.876Z,49435.97
2022-09-06T20:29:02.595Z,49416.03
2022-09-06T20:31:31.386Z,49420.00
2022-09-06T20:34:02.270Z,49439.94
2022-09-06T20:36:29.546Z,49412.03
2022-09-06T20:38:56.355Z,49422.00
2022-09-06T20:41:24.917Z,49392.09
2022-09-06T20:43:56.657Z,49426.00
2022-09-06T20:46:25.908Z,49420.00
2022-09-06T20:48:55.245Z,49404.06
2022-09-06T20:51:23.556Z,49433.97
2022-09-06T20:53:55.582Z,49418.00
2022-09-06T20:56:25.046Z,49426.00
2022-09-06T20:58:56.602Z,49400.06
2022-09-06T21:01:26.596Z,49418.00
2022-09-06T21:03:56.095Z,49455.88
2022-09-06T21:06:24.528Z,49416.03
2022-09-06T21:08:51.695Z,49447.91
2022-09-06T21:11:19.276Z,49410.03
2022-09-06T21:13:55.869Z,49431.97
2022-09-06T21:16:25.068Z,49451.91
2022-09-06T21:18:56.974Z,49424.00
2022-09-06T21:21:25.305Z,49406.06
2022-09-06T21:23:52.248Z,49382.13
2022-09-06T21:26:19.039Z,49431.97
2022-09-06T21:28:46.802Z,49392.09
2022-09-06T21:31:15.701Z,49422.00
2022-09-06T21:33:47.337Z,49422.00
2022-09-06T21:36:19.663Z,49433.97
2022-09-06T21:38:48.682Z,49433.97
2022-09-06T21:41:17.012Z,49439.94
2022-09-06T21:43:44.054Z,49431.97
2022-09-06T21:46:16.948Z,49457.88
2022-09-06T21:48:45.963Z,49414.03
2022-09-06T21:51:14.981Z,49441.94
2022-09-06T21:53:43.809Z,49437.94
2022-09-06T21:56:10.689Z,49455.88
2022-09-06T21:58:37.822Z,49437.94
2022-09-06T22:01:05.271Z,49447.91
2022-09-06T22:03:39.068Z,49447.91
2022-09-06T22:06:10.789Z,49426.00
2022-09-06T22:08:38.084Z,49431.97
2022-09-06T22:11:15.347Z,49455.88
2022-09-06T22:13:42.816Z,49449.91
2022-09-06T22:16:12.228Z,49455.88
2022-09-06T22:18:39.159Z,49465.84
2022-09-06T22:21:08.837Z,49431.97
2022-09-06T22:23:35.805Z,49451.91
2022-09-06T22:26:05.301Z,49453.91
2022-09-06T22:28:32.764Z,49439.94
2022-09-06T22:30:59.759Z,49459.88
2022-09-06T22:33:26.482Z,49495.75
2022-09-06T22:35:53.806Z,49479.81
2022-09-06T22:38:20.650Z,49473.84
2022-09-06T22:40:47.306Z,49463.88
2022-09-06T22:43:14.883Z,49483.81
2022-09-06T22:45:43.604Z,49487.78
2022-09-06T22:48:10.952Z,49481.81
2022-09-06T22:50:37.586Z,49485.78
2022-09-06T22:53:04.471Z,49489.78
2022-09-06T22:55:31.080Z,49461.88
2022-09-06T22:57:57.744Z,49477.81
2022-09-06T23:00:26.922Z,49479.81
2022-09-06T23:02:53.993Z,49477.81
2022-09-06T23:05:21.609Z,49485.78
2022-09-06T23:07:50.169Z,49479.81
2022-09-06T23:10:17.740Z,49497.75
2022-09-06T23:12:44.436Z,49491.78
2022-09-06T23:15:11.252Z,49463.88
2022-09-06T23:17:37.902Z,49469.84
2022-09-06T23:20:04.850Z,49495.75
2022-09-06T23:22:31.607Z,49531.63
2022-09-06T23:24:58.270Z,49523.66
2022-09-06T23:27:25.324Z,49499.75
2022-09-06T23:29:52.020Z,49491.78
2022-09-06T23:32:18.623Z,49519.69
2022-09-06T23:34:45.505Z,49501.75
2022-09-06T23:37:12.108Z,49483.81
2022-09-06T23:39:38.786Z,49469.84
2022-09-06T23:42:05.603Z,49505.72
2022-09-06T23:44:32.237Z,49501.75
2022-09-06T23:46:58.936Z,49493.75
2022-09-06T23:49:25.608Z,49471.84
2022-09-06T23:51:53.481Z,49483.81
2022-09-06T23:54:20.201Z,49499.75
2022-09-06T23:56:46.973Z,49527.66
2022-09-06T23:59:13.604Z,49523.66
